sensor_id;sensor_type;location;lat;lon;timestamp;P1;P2;P0
82040;PMS7003;71612;44.776;20.472;2023-09-19T00:00:59;7.75;7.75;6.25
82040;PMS7003;71612;44.776;20.472;2023-09-19T00:03:24;6.50;6.50;5.00
82040;PMS7003;71612;44.776;20.472;2023-09-19T00:05:53;8.60;8.60;6.20
82040;PMS7003;71612;44.776;20.472;2023-09-19T00:08:20;8.00;8.00;5.00
82040;PMS7003;71612;44.776;20.472;2023-09-19T00:10:49;6.00;6.00;5.20
82040;PMS7003;71612;44.776;20.472;2023-09-19T00:13:15;5.75;5.75;5.00
82040;PMS7003;71612;44.776;20.472;2023-09-19T00:15:42;9.00;9.00;7.00
82040;PMS7003;71612;44.776;20.472;2023-09-19T00:18:16;7.60;7.20;5.20
82040;PMS7003;71612;44.776;20.472;2023-09-19T00:20:43;7.20;6.80;5.00
82040;PMS7003;71612;44.776;20.472;2023-09-19T00:23:12;7.00;7.00;5.00
82040;PMS7003;71612;44.776;20.472;2023-09-19T00:25:38;9.60;8.20;5.80
82040;PMS7003;71612;44.776;20.472;2023-09-19T00:28:05;7.80;7.80;5.40
82040;PMS7003;71612;44.776;20.472;2023-09-19T00:30:32;9.00;9.00;5.00
82040;PMS7003;71612;44.776;20.472;2023-09-19T00:32:58;9.60;9.60;5.60
82040;PMS7003;71612;44.776;20.472;2023-09-19T00:35:25;8.00;8.00;5.00
82040;PMS7003;71612;44.776;20.472;2023-09-19T00:37:51;6.75;6.75;5.75
82040;PMS7003;71612;44.776;20.472;2023-09-19T00:40:17;6.20;6.20;5.20
82040;PMS7003;71612;44.776;20.472;2023-09-19T00:42:46;6.20;6.20;5.00
82040;PMS7003;71612;44.776;20.472;2023-09-19T00:45:13;7.00;7.00;5.00
82040;PMS7003;71612;44.776;20.472;2023-09-19T00:47:41;7.00;7.00;5.20
82040;PMS7003;71612;44.776;20.472;2023-09-19T00:50:09;6.40;6.40;5.80
82040;PMS7003;71612;44.776;20.472;2023-09-19T00:52:36;8.00;6.60;3.60
82040;PMS7003;71612;44.776;20.472;2023-09-19T00:55:05;6.80;6.60;4.40
82040;PMS7003;71612;44.776;20.472;2023-09-19T00:57:32;6.40;6.20;5.00
82040;PMS7003;71612;44.776;20.472;2023-09-19T00:59:58;6.20;5.80;4.60
82040;PMS7003;71612;44.776;20.472;2023-09-19T01:02:25;7.80;7.80;5.40
82040;PMS7003;71612;44.776;20.472;2023-09-19T01:04:54;7.20;7.20;5.20
82040;PMS7003;71612;44.776;20.472;2023-09-19T01:07:19;8.00;8.00;5.00
82040;PMS7003;71612;44.776;20.472;2023-09-19T01:09:47;7.60;7.60;5.20
82040;PMS7003;71612;44.776;20.472;2023-09-19T01:12:13;8.75;8.75;6.00
82040;PMS7003;71612;44.776;20.472;2023-09-19T01:14:54;8.00;7.60;5.00
82040;PMS7003;71612;44.776;20.472;2023-09-19T01:17:26;7.60;7.60;6.40
82040;PMS7003;71612;44.776;20.472;2023-09-19T01:30:56;7.00;7.00;5.40
82040;PMS7003;71612;44.776;20.472;2023-09-19T01:33:26;8.20;8.20;6.00
82040;PMS7003;71612;44.776;20.472;2023-09-19T01:35:52;6.25;6.25;5.00
82040;PMS7003;71612;44.776;20.472;2023-09-19T01:38:22;7.60;7.60;5.20
82040;PMS7003;71612;44.776;20.472;2023-09-19T01:40:56;6.75;6.75;4.50
82040;PMS7003;71612;44.776;20.472;2023-09-19T01:43:34;7.80;7.00;5.00
82040;PMS7003;71612;44.776;20.472;2023-09-19T01:49:03;8.60;8.60;5.80
82040;PMS7003;71612;44.776;20.472;2023-09-19T01:51:46;8.40;8.20;5.00
82040;PMS7003;71612;44.776;20.472;2023-09-19T01:54:34;7.60;7.00;4.80
82040;PMS7003;71612;44.776;20.472;2023-09-19T01:57:09;7.80;7.80;5.20
82040;PMS7003;71612;44.776;20.472;2023-09-19T01:59:52;7.80;7.40;6.00
82040;PMS7003;71612;44.776;20.472;2023-09-19T02:02:22;7.40;7.40;5.60
82040;PMS7003;71612;44.776;20.472;2023-09-19T02:04:48;5.50;5.50;4.00
82040;PMS7003;71612;44.776;20.472;2023-09-19T02:07:15;7.60;7.60;5.00
82040;PMS7003;71612;44.776;20.472;2023-09-19T02:09:41;8.80;7.00;5.40
82040;PMS7003;71612;44.776;20.472;2023-09-19T02:12:08;8.25;8.25;6.00
82040;PMS7003;71612;44.776;20.472;2023-09-19T02:14:34;7.00;7.00;5.80
82040;PMS7003;71612;44.776;20.472;2023-09-19T02:17:01;7.80;6.40;5.00
82040;PMS7003;71612;44.776;20.472;2023-09-19T02:19:27;8.60;7.40;5.60
82040;PMS7003;71612;44.776;20.472;2023-09-19T02:21:54;7.20;7.20;5.00
82040;PMS7003;71612;44.776;20.472;2023-09-19T02:24:20;5.75;5.75;5.00
82040;PMS7003;71612;44.776;20.472;2023-09-19T02:26:46;7.00;7.00;5.00
82040;PMS7003;71612;44.776;20.472;2023-09-19T02:29:12;6.40;6.40;4.80
82040;PMS7003;71612;44.776;20.472;2023-09-19T02:31:38;8.00;7.60;5.00
82040;PMS7003;71612;44.776;20.472;2023-09-19T02:34:04;7.60;7.60;6.00
82040;PMS7003;71612;44.776;20.472;2023-09-19T02:36:32;8.60;8.60;6.20
82040;PMS7003;71612;44.776;20.472;2023-09-19T02:38:57;7.00;7.00;4.50
82040;PMS7003;71612;44.776;20.472;2023-09-19T02:41:22;6.75;6.75;5.25
82040;PMS7003;71612;44.776;20.472;2023-09-19T02:43:48;7.50;7.50;5.25
82040;PMS7003;71612;44.776;20.472;2023-09-19T02:46:13;7.00;5.25;4.25
82040;PMS7003;71612;44.776;20.472;2023-09-19T02:48:39;5.25;5.25;4.00
82040;PMS7003;71612;44.776;20.472;2023-09-19T02:51:04;9.00;7.75;5.00
82040;PMS7003;71612;44.776;20.472;2023-09-19T02:53:30;6.50;6.50;5.50
82040;PMS7003;71612;44.776;20.472;2023-09-19T02:55:57;6.80;6.80;5.20
82040;PMS7003;71612;44.776;20.472;2023-09-19T02:58:22;5.25;5.00;4.00
82040;PMS7003;71612;44.776;20.472;2023-09-19T03:00:50;6.60;6.60;5.80
82040;PMS7003;71612;44.776;20.472;2023-09-19T03:03:16;6.80;6.80;5.40
82040;PMS7003;71612;44.776;20.472;2023-09-19T03:05:42;7.20;6.40;5.00
82040;PMS7003;71612;44.776;20.472;2023-09-19T03:08:12;7.00;7.00;5.60
82040;PMS7003;71612;44.776;20.472;2023-09-19T03:10:39;7.40;7.00;4.80
82040;PMS7003;71612;44.776;20.472;2023-09-19T03:13:05;7.00;7.00;4.00
82040;PMS7003;71612;44.776;20.472;2023-09-19T03:15:34;8.40;7.20;5.00
82040;PMS7003;71612;44.776;20.472;2023-09-19T03:18:03;9.00;9.00;5.00
82040;PMS7003;71612;44.776;20.472;2023-09-19T03:20:29;7.80;7.80;5.80
82040;PMS7003;71612;44.776;20.472;2023-09-19T03:22:55;5.75;5.75;4.00
82040;PMS7003;71612;44.776;20.472;2023-09-19T03:25:22;9.00;9.00;5.60
82040;PMS7003;71612;44.776;20.472;2023-09-19T03:27:48;8.50;8.50;5.25
82040;PMS7003;71612;44.776;20.472;2023-09-19T03:30:14;6.50;6.50;3.00
82040;PMS7003;71612;44.776;20.472;2023-09-19T03:32:46;8.25;7.25;5.00
82040;PMS7003;71612;44.776;20.472;2023-09-19T03:35:14;9.20;8.20;5.80
82040;PMS7003;71612;44.776;20.472;2023-09-19T03:37:40;8.75;7.00;5.00
82040;PMS7003;71612;44.776;20.472;2023-09-19T03:40:08;7.00;6.60;5.00
82040;PMS7003;71612;44.776;20.472;2023-09-19T03:42:37;8.80;8.60;6.00
82040;PMS7003;71612;44.776;20.472;2023-09-19T03:45:03;8.20;8.20;6.00
82040;PMS7003;71612;44.776;20.472;2023-09-19T03:47:29;8.00;7.25;5.50
82040;PMS7003;71612;44.776;20.472;2023-09-19T03:49:54;7.75;7.25;6.25
82040;PMS7003;71612;44.776;20.472;2023-09-19T03:52:20;8.25;8.25;6.00
82040;PMS7003;71612;44.776;20.472;2023-09-19T03:54:45;7.25;7.25;5.50
82040;PMS7003;71612;44.776;20.472;2023-09-19T03:57:10;10.00;10.00;7.00
82040;PMS7003;71612;44.776;20.472;2023-09-19T03:59:37;8.00;8.00;7.20
82040;PMS7003;71612;44.776;20.472;2023-09-19T04:02:03;9.75;9.00;6.00
82040;PMS7003;71612;44.776;20.472;2023-09-19T04:04:29;7.20;6.20;5.20
82040;PMS7003;71612;44.776;20.472;2023-09-19T04:06:55;7.75;7.75;5.00
82040;PMS7003;71612;44.776;20.472;2023-09-19T04:09:20;8.50;8.50;6.00
82040;PMS7003;71612;44.776;20.472;2023-09-19T04:11:45;7.00;7.00;5.50
82040;PMS7003;71612;44.776;20.472;2023-09-19T04:14:11;10.00;10.00;6.50
82040;PMS7003;71612;44.776;20.472;2023-09-19T04:16:36;10.50;9.75;6.00
82040;PMS7003;71612;44.776;20.472;2023-09-19T04:19:02;8.75;7.00;5.00
82040;PMS7003;71612;44.776;20.472;2023-09-19T04:21:28;9.00;9.00;6.20
82040;PMS7003;71612;44.776;20.472;2023-09-19T04:23:54;9.75;9.75;6.50
82040;PMS7003;71612;44.776;20.472;2023-09-19T04:26:19;8.50;8.50;5.25
82040;PMS7003;71612;44.776;20.472;2023-09-19T04:28:45;8.25;7.00;5.50
82040;PMS7003;71612;44.776;20.472;2023-09-19T04:31:11;10.25;9.50;5.75
82040;PMS7003;71612;44.776;20.472;2023-09-19T04:33:37;9.75;9.75;6.00
82040;PMS7003;71612;44.776;20.472;2023-09-19T04:36:02;10.00;10.00;6.00
82040;PMS7003;71612;44.776;20.472;2023-09-19T04:38:32;9.20;8.60;5.40
82040;PMS7003;71612;44.776;20.472;2023-09-19T04:40:58;10.00;10.00;7.50
82040;PMS7003;71612;44.776;20.472;2023-09-19T04:43:24;11.00;11.00;7.25
82040;PMS7003;71612;44.776;20.472;2023-09-19T04:45:49;9.25;9.25;6.00
82040;PMS7003;71612;44.776;20.472;2023-09-19T04:48:15;8.20;7.20;5.80
82040;PMS7003;71612;44.776;20.472;2023-09-19T04:50:41;9.25;9.25;7.00
82040;PMS7003;71612;44.776;20.472;2023-09-19T04:53:06;7.25;7.25;6.00
82040;PMS7003;71612;44.776;20.472;2023-09-19T04:55:32;7.25;7.25;5.75
82040;PMS7003;71612;44.776;20.472;2023-09-19T04:57:58;9.75;9.00;5.50
82040;PMS7003;71612;44.776;20.472;2023-09-19T05:00:23;11.50;11.50;8.00
82040;PMS7003;71612;44.776;20.472;2023-09-19T05:02:49;10.75;10.25;6.50
82040;PMS7003;71612;44.776;20.472;2023-09-19T05:05:16;8.20;8.20;6.00
82040;PMS7003;71612;44.776;20.472;2023-09-19T05:07:42;11.40;10.20;6.60
82040;PMS7003;71612;44.776;20.472;2023-09-19T05:10:09;9.00;7.60;5.00
82040;PMS7003;71612;44.776;20.472;2023-09-19T05:12:35;9.00;9.00;6.80
82040;PMS7003;71612;44.776;20.472;2023-09-19T05:15:04;11.50;11.50;6.50
82040;PMS7003;71612;44.776;20.472;2023-09-19T05:17:34;10.40;9.40;7.80
82040;PMS7003;71612;44.776;20.472;2023-09-19T05:20:00;12.00;12.00;7.75
82040;PMS7003;71612;44.776;20.472;2023-09-19T05:22:40;10.00;8.20;7.20
82040;PMS7003;71612;44.776;20.472;2023-09-19T05:25:06;9.60;8.80;6.00
82040;PMS7003;71612;44.776;20.472;2023-09-19T05:27:32;8.25;8.25;6.25
82040;PMS7003;71612;44.776;20.472;2023-09-19T05:29:58;10.20;10.20;7.00
82040;PMS7003;71612;44.776;20.472;2023-09-19T05:32:24;10.25;8.50;5.25
82040;PMS7003;71612;44.776;20.472;2023-09-19T05:34:49;9.50;9.50;7.50
82040;PMS7003;71612;44.776;20.472;2023-09-19T05:37:18;11.20;10.80;7.20
82040;PMS7003;71612;44.776;20.472;2023-09-19T05:39:44;10.00;10.00;6.50
82040;PMS7003;71612;44.776;20.472;2023-09-19T05:42:10;9.50;9.50;7.00
82040;PMS7003;71612;44.776;20.472;2023-09-19T05:44:35;9.00;8.25;6.25
82040;PMS7003;71612;44.776;20.472;2023-09-19T05:47:01;12.00;11.00;7.25
82040;PMS7003;71612;44.776;20.472;2023-09-19T05:49:28;10.40;10.40;6.80
82040;PMS7003;71612;44.776;20.472;2023-09-19T05:51:53;10.00;10.00;7.75
82040;PMS7003;71612;44.776;20.472;2023-09-19T05:54:20;10.20;10.20;7.00
82040;PMS7003;71612;44.776;20.472;2023-09-19T05:56:45;8.75;8.75;6.50
82040;PMS7003;71612;44.776;20.472;2023-09-19T05:59:12;9.00;8.80;6.80
82040;PMS7003;71612;44.776;20.472;2023-09-19T06:01:40;9.60;9.60;7.60
82040;PMS7003;71612;44.776;20.472;2023-09-19T06:04:07;9.60;9.60;6.80
82040;PMS7003;71612;44.776;20.472;2023-09-19T06:06:32;10.25;9.25;6.25
82040;PMS7003;71612;44.776;20.472;2023-09-19T06:09:04;11.00;11.00;8.20
82040;PMS7003;71612;44.776;20.472;2023-09-19T06:11:30;6.40;6.40;3.60
82040;PMS7003;71612;44.776;20.472;2023-09-19T06:13:59;13.20;13.00;7.80
82040;PMS7003;71612;44.776;20.472;2023-09-19T06:16:27;14.20;12.80;8.40
82040;PMS7003;71612;44.776;20.472;2023-09-19T06:18:53;11.40;10.80;7.40
82040;PMS7003;71612;44.776;20.472;2023-09-19T06:21:21;9.20;9.20;5.60
82040;PMS7003;71612;44.776;20.472;2023-09-19T06:23:47;12.00;12.00;8.20
82040;PMS7003;71612;44.776;20.472;2023-09-19T06:26:12;9.00;9.00;6.25
82040;PMS7003;71612;44.776;20.472;2023-09-19T06:28:38;13.00;13.00;7.50
82040;PMS7003;71612;44.776;20.472;2023-09-19T06:31:03;12.50;10.50;7.25
82040;PMS7003;71612;44.776;20.472;2023-09-19T06:33:33;12.40;12.40;8.60
82040;PMS7003;71612;44.776;20.472;2023-09-19T06:35:58;12.75;11.25;7.25
82040;PMS7003;71612;44.776;20.472;2023-09-19T06:38:25;13.40;11.80;7.60
82040;PMS7003;71612;44.776;20.472;2023-09-19T06:40:50;10.50;9.50;7.25
82040;PMS7003;71612;44.776;20.472;2023-09-19T06:43:16;13.00;12.00;9.00
82040;PMS7003;71612;44.776;20.472;2023-09-19T06:45:41;12.00;12.00;8.00
82040;PMS7003;71612;44.776;20.472;2023-09-19T06:48:07;12.50;10.00;8.75
82040;PMS7003;71612;44.776;20.472;2023-09-19T06:50:34;11.60;11.60;9.20
82040;PMS7003;71612;44.776;20.472;2023-09-19T06:53:01;13.40;12.20;8.80
82040;PMS7003;71612;44.776;20.472;2023-09-19T06:55:27;13.40;13.40;8.00
82040;PMS7003;71612;44.776;20.472;2023-09-19T06:57:56;13.40;12.00;9.00
82040;PMS7003;71612;44.776;20.472;2023-09-19T07:00:21;12.00;11.75;8.25
82040;PMS7003;71612;44.776;20.472;2023-09-19T07:03:01;13.20;13.00;9.60
82040;PMS7003;71612;44.776;20.472;2023-09-19T07:05:29;13.20;13.20;8.80
82040;PMS7003;71612;44.776;20.472;2023-09-19T07:07:56;9.60;9.60;8.20
82040;PMS7003;71612;44.776;20.472;2023-09-19T07:10:26;13.00;12.20;9.80
82040;PMS7003;71612;44.776;20.472;2023-09-19T07:15:32;14.20;13.00;8.40
82040;PMS7003;71612;44.776;20.472;2023-09-19T07:18:01;13.40;12.00;9.40
82040;PMS7003;71612;44.776;20.472;2023-09-19T07:20:26;13.50;13.50;9.00
82040;PMS7003;71612;44.776;20.472;2023-09-19T07:22:53;11.60;11.60;8.20
82040;PMS7003;71612;44.776;20.472;2023-09-19T07:25:24;12.40;12.40;8.40
82040;PMS7003;71612;44.776;20.472;2023-09-19T07:27:50;13.00;12.00;7.50
82040;PMS7003;71612;44.776;20.472;2023-09-19T07:30:16;12.50;12.00;8.25
82040;PMS7003;71612;44.776;20.472;2023-09-19T07:32:41;14.50;11.50;8.00
82040;PMS7003;71612;44.776;20.472;2023-09-19T07:35:07;12.50;12.25;8.00
82040;PMS7003;71612;44.776;20.472;2023-09-19T07:37:33;11.75;11.50;10.00
82040;PMS7003;71612;44.776;20.472;2023-09-19T07:39:59;15.75;15.00;9.00
82040;PMS7003;71612;44.776;20.472;2023-09-19T07:42:35;15.20;13.80;9.40
82040;PMS7003;71612;44.776;20.472;2023-09-19T07:45:05;13.60;13.60;9.60
82040;PMS7003;71612;44.776;20.472;2023-09-19T07:47:32;13.40;13.20;9.80
82040;PMS7003;71612;44.776;20.472;2023-09-19T07:49:58;17.00;15.75;10.00
82040;PMS7003;71612;44.776;20.472;2023-09-19T07:52:26;11.80;11.40;8.40
82040;PMS7003;71612;44.776;20.472;2023-09-19T07:54:52;15.25;15.25;10.25
82040;PMS7003;71612;44.776;20.472;2023-09-19T07:57:18;16.60;16.60;10.80
82040;PMS7003;71612;44.776;20.472;2023-09-19T07:59:44;18.80;17.00;10.60
82040;PMS7003;71612;44.776;20.472;2023-09-19T08:02:10;24.75;20.25;12.50
82040;PMS7003;71612;44.776;20.472;2023-09-19T08:04:41;21.00;17.80;11.00
82040;PMS7003;71612;44.776;20.472;2023-09-19T08:07:07;26.20;20.60;11.40
82040;PMS7003;71612;44.776;20.472;2023-09-19T08:09:33;17.40;15.80;11.00
82040;PMS7003;71612;44.776;20.472;2023-09-19T08:11:59;23.75;21.75;12.75
82040;PMS7003;71612;44.776;20.472;2023-09-19T08:14:27;17.80;17.60;11.20
82040;PMS7003;71612;44.776;20.472;2023-09-19T08:16:57;17.60;17.00;11.20
82040;PMS7003;71612;44.776;20.472;2023-09-19T08:19:23;21.20;20.20;12.60
82040;PMS7003;71612;44.776;20.472;2023-09-19T08:21:56;22.20;19.40;11.60
82040;PMS7003;71612;44.776;20.472;2023-09-19T08:24:27;13.80;13.20;7.00
82040;PMS7003;71612;44.776;20.472;2023-09-19T08:26:54;16.40;16.40;10.20
82040;PMS7003;71612;44.776;20.472;2023-09-19T08:29:20;17.60;15.60;9.40
82040;PMS7003;71612;44.776;20.472;2023-09-19T08:31:52;14.40;14.40;9.80
82040;PMS7003;71612;44.776;20.472;2023-09-19T08:34:22;17.20;14.40;10.00
82040;PMS7003;71612;44.776;20.472;2023-09-19T08:36:50;10.80;10.80;6.60
82040;PMS7003;71612;44.776;20.472;2023-09-19T08:39:17;13.40;13.00;9.80
82040;PMS7003;71612;44.776;20.472;2023-09-19T08:41:44;15.20;14.80;9.40
82040;PMS7003;71612;44.776;20.472;2023-09-19T08:44:09;15.00;14.25;10.75
82040;PMS7003;71612;44.776;20.472;2023-09-19T08:46:35;13.25;12.25;9.00
82040;PMS7003;71612;44.776;20.472;2023-09-19T08:49:21;11.60;11.00;6.60
82040;PMS7003;71612;44.776;20.472;2023-09-19T08:52:00;13.80;13.20;8.00
82040;PMS7003;71612;44.776;20.472;2023-09-19T08:54:32;16.00;12.20;9.20
82040;PMS7003;71612;44.776;20.472;2023-09-19T08:57:05;13.40;11.80;8.20
82040;PMS7003;71612;44.776;20.472;2023-09-19T08:59:39;12.80;11.80;8.80
82040;PMS7003;71612;44.776;20.472;2023-09-19T09:02:09;11.40;11.40;8.60
82040;PMS7003;71612;44.776;20.472;2023-09-19T09:04:38;13.00;11.20;8.80
82040;PMS7003;71612;44.776;20.472;2023-09-19T09:07:09;14.80;12.80;7.20
82040;PMS7003;71612;44.776;20.472;2023-09-19T09:09:37;13.00;13.00;9.60
82040;PMS7003;71612;44.776;20.472;2023-09-19T09:12:08;10.80;9.40;6.80
82040;PMS7003;71612;44.776;20.472;2023-09-19T09:14:38;9.80;9.60;6.20
82040;PMS7003;71612;44.776;20.472;2023-09-19T09:17:13;12.20;11.60;8.40
82040;PMS7003;71612;44.776;20.472;2023-09-19T09:19:39;11.50;9.25;7.00
82040;PMS7003;71612;44.776;20.472;2023-09-19T09:22:09;12.40;10.60;7.60
82040;PMS7003;71612;44.776;20.472;2023-09-19T09:24:36;14.40;13.00;9.20
82040;PMS7003;71612;44.776;20.472;2023-09-19T09:27:05;11.80;11.80;8.00
82040;PMS7003;71612;44.776;20.472;2023-09-19T09:32:25;10.80;10.80;7.00
82040;PMS7003;71612;44.776;20.472;2023-09-19T09:34:59;11.60;11.20;8.20
82040;PMS7003;71612;44.776;20.472;2023-09-19T09:37:25;23.40;20.60;13.40
82040;PMS7003;71612;44.776;20.472;2023-09-19T09:40:00;15.80;13.40;9.80
82040;PMS7003;71612;44.776;20.472;2023-09-19T09:42:50;14.00;12.80;10.00
82040;PMS7003;71612;44.776;20.472;2023-09-19T09:45:23;12.80;11.60;8.20
82040;PMS7003;71612;44.776;20.472;2023-09-19T09:48:02;15.40;13.20;7.00
82040;PMS7003;71612;44.776;20.472;2023-09-19T09:53:07;16.20;14.40;9.00
82040;PMS7003;71612;44.776;20.472;2023-09-19T09:58:36;13.60;13.00;8.80
82040;PMS7003;71612;44.776;20.472;2023-09-19T10:01:05;11.60;10.40;8.40
82040;PMS7003;71612;44.776;20.472;2023-09-19T10:03:36;12.80;12.60;7.80
82040;PMS7003;71612;44.776;20.472;2023-09-19T10:06:07;15.20;13.00;8.00
82040;PMS7003;71612;44.776;20.472;2023-09-19T10:11:45;12.80;11.00;9.20
82040;PMS7003;71612;44.776;20.472;2023-09-19T10:14:28;11.00;11.00;8.00
82040;PMS7003;71612;44.776;20.472;2023-09-19T10:16:56;12.60;12.00;9.00
82040;PMS7003;71612;44.776;20.472;2023-09-19T10:22:04;12.40;12.40;9.40
82040;PMS7003;71612;44.776;20.472;2023-09-19T10:24:33;13.80;13.20;9.00
82040;PMS7003;71612;44.776;20.472;2023-09-19T10:27:02;10.80;10.80;8.20
82040;PMS7003;71612;44.776;20.472;2023-09-19T10:29:33;14.60;13.60;9.00
82040;PMS7003;71612;44.776;20.472;2023-09-19T10:32:01;12.20;12.20;8.00
82040;PMS7003;71612;44.776;20.472;2023-09-19T10:34:34;14.20;11.60;7.40
82040;PMS7003;71612;44.776;20.472;2023-09-19T10:37:00;14.00;13.00;8.00
82040;PMS7003;71612;44.776;20.472;2023-09-19T10:39:30;15.80;15.00;9.00
82040;PMS7003;71612;44.776;20.472;2023-09-19T10:41:57;12.80;12.60;8.00
82040;PMS7003;71612;44.776;20.472;2023-09-19T10:44:31;12.00;11.60;8.00
82040;PMS7003;71612;44.776;20.472;2023-09-19T10:46:57;12.20;10.80;7.80
82040;PMS7003;71612;44.776;20.472;2023-09-19T10:49:23;10.00;10.00;7.00
82040;PMS7003;71612;44.776;20.472;2023-09-19T10:51:50;11.25;11.25;8.25
82040;PMS7003;71612;44.776;20.472;2023-09-19T10:54:25;9.80;9.80;7.40
82040;PMS7003;71612;44.776;20.472;2023-09-19T10:56:54;11.20;11.20;9.00
82040;PMS7003;71612;44.776;20.472;2023-09-19T10:59:22;9.80;9.80;7.20
82040;PMS7003;71612;44.776;20.472;2023-09-19T11:01:52;12.40;11.40;7.40
82040;PMS7003;71612;44.776;20.472;2023-09-19T11:04:31;8.00;7.20;5.60
82040;PMS7003;71612;44.776;20.472;2023-09-19T11:15:07;13.20;12.80;8.00
82040;PMS7003;71612;44.776;20.472;2023-09-19T11:17:35;11.40;9.80;6.80
82040;PMS7003;71612;44.776;20.472;2023-09-19T11:30:43;10.40;10.40;7.60
82040;PMS7003;71612;44.776;20.472;2023-09-19T11:36:06;10.20;9.00;7.00
82040;PMS7003;71612;44.776;20.472;2023-09-19T11:46:53;14.00;13.60;8.40
82040;PMS7003;71612;44.776;20.472;2023-09-19T11:49:26;11.00;11.00;8.40
82040;PMS7003;71612;44.776;20.472;2023-09-19T11:51:55;10.80;10.80;7.60
82040;PMS7003;71612;44.776;20.472;2023-09-19T11:54:22;10.00;10.00;6.20
82040;PMS7003;71612;44.776;20.472;2023-09-19T11:56:50;11.80;10.80;7.00
82040;PMS7003;71612;44.776;20.472;2023-09-19T11:59:20;10.60;10.40;7.60
82040;PMS7003;71612;44.776;20.472;2023-09-19T12:01:51;8.80;8.00;6.20
82040;PMS7003;71612;44.776;20.472;2023-09-19T12:04:34;11.60;11.60;7.40
82040;PMS7003;71612;44.776;20.472;2023-09-19T12:07:03;9.00;9.00;6.00
82040;PMS7003;71612;44.776;20.472;2023-09-19T12:09:30;8.80;8.40;7.00
82040;PMS7003;71612;44.776;20.472;2023-09-19T12:11:56;10.25;9.25;6.25
82040;PMS7003;71612;44.776;20.472;2023-09-19T12:14:25;9.20;9.20;6.80
82040;PMS7003;71612;44.776;20.472;2023-09-19T12:16:53;10.00;10.00;7.00
82040;PMS7003;71612;44.776;20.472;2023-09-19T12:19:20;8.80;8.80;6.60
82040;PMS7003;71612;44.776;20.472;2023-09-19T12:24:32;10.80;10.20;7.00
82040;PMS7003;71612;44.776;20.472;2023-09-19T12:27:00;10.80;10.80;7.80
82040;PMS7003;71612;44.776;20.472;2023-09-19T12:29:29;9.00;9.00;7.00
82040;PMS7003;71612;44.776;20.472;2023-09-19T12:31:57;12.60;12.60;8.60
82040;PMS7003;71612;44.776;20.472;2023-09-19T12:34:27;14.00;13.60;10.00
82040;PMS7003;71612;44.776;20.472;2023-09-19T12:37:07;11.20;11.20;8.60
82040;PMS7003;71612;44.776;20.472;2023-09-19T12:39:37;16.00;15.60;10.00
82040;PMS7003;71612;44.776;20.472;2023-09-19T12:42:04;13.40;13.40;11.00
82040;PMS7003;71612;44.776;20.472;2023-09-19T12:44:33;17.00;15.80;11.40
82040;PMS7003;71612;44.776;20.472;2023-09-19T12:47:07;53.40;41.20;24.00
82040;PMS7003;71612;44.776;20.472;2023-09-19T12:49:34;32.80;28.00;18.20
82040;PMS7003;71612;44.776;20.472;2023-09-19T12:52:00;31.00;28.50;16.75
82040;PMS7003;71612;44.776;20.472;2023-09-19T12:54:25;26.00;24.00;16.25
82040;PMS7003;71612;44.776;20.472;2023-09-19T12:57:04;27.20;25.60;16.00
82040;PMS7003;71612;44.776;20.472;2023-09-19T12:59:30;24.60;21.40;13.80
82040;PMS7003;71612;44.776;20.472;2023-09-19T13:02:03;25.20;24.20;15.20
82040;PMS7003;71612;44.776;20.472;2023-09-19T13:04:32;25.60;25.00;14.60
82040;PMS7003;71612;44.776;20.472;2023-09-19T13:06:59;23.20;18.60;13.00
82040;PMS7003;71612;44.776;20.472;2023-09-19T13:09:26;24.80;23.60;14.60
82040;PMS7003;71612;44.776;20.472;2023-09-19T13:12:04;24.20;22.40;15.20
82040;PMS7003;71612;44.776;20.472;2023-09-19T13:15:06;23.60;20.80;14.00
82040;PMS7003;71612;44.776;20.472;2023-09-19T13:17:43;26.80;23.40;13.00
82040;PMS7003;71612;44.776;20.472;2023-09-19T13:20:24;22.60;20.20;13.00
82040;PMS7003;71612;44.776;20.472;2023-09-19T13:22:57;24.40;21.80;14.00
82040;PMS7003;71612;44.776;20.472;2023-09-19T13:25:33;24.60;22.60;13.60
82040;PMS7003;71612;44.776;20.472;2023-09-19T13:27:59;20.60;17.60;12.60
82040;PMS7003;71612;44.776;20.472;2023-09-19T13:30:29;22.20;21.80;13.20
82040;PMS7003;71612;44.776;20.472;2023-09-19T13:33:06;21.40;20.40;13.00
82040;PMS7003;71612;44.776;20.472;2023-09-19T13:35:34;24.20;19.20;12.60
82040;PMS7003;71612;44.776;20.472;2023-09-19T13:38:00;21.00;20.40;12.80
82040;PMS7003;71612;44.776;20.472;2023-09-19T13:40:26;21.25;21.25;12.25
82040;PMS7003;71612;44.776;20.472;2023-09-19T13:42:55;20.40;19.00;11.40
82040;PMS7003;71612;44.776;20.472;2023-09-19T13:45:21;18.00;15.50;9.00
82040;PMS7003;71612;44.776;20.472;2023-09-19T13:47:49;21.60;20.20;12.20
82040;PMS7003;71612;44.776;20.472;2023-09-19T13:50:15;23.75;19.00;13.00
82040;PMS7003;71612;44.776;20.472;2023-09-19T13:52:41;17.60;17.00;11.00
82040;PMS7003;71612;44.776;20.472;2023-09-19T13:55:07;20.75;17.25;11.75
82040;PMS7003;71612;44.776;20.472;2023-09-19T13:57:33;20.00;17.25;12.00
82040;PMS7003;71612;44.776;20.472;2023-09-19T13:59:59;21.00;19.50;12.00
82040;PMS7003;71612;44.776;20.472;2023-09-19T14:02:24;17.50;16.50;12.50
82040;PMS7003;71612;44.776;20.472;2023-09-19T14:04:50;18.50;17.25;10.75
82040;PMS7003;71612;44.776;20.472;2023-09-19T14:07:16;19.00;17.00;11.40
82040;PMS7003;71612;44.776;20.472;2023-09-19T14:09:43;18.80;16.80;12.60
82040;PMS7003;71612;44.776;20.472;2023-09-19T14:12:09;16.00;15.50;10.25
82040;PMS7003;71612;44.776;20.472;2023-09-19T14:14:35;22.75;19.00;11.25
82040;PMS7003;71612;44.776;20.472;2023-09-19T14:17:02;17.20;16.40;10.20
82040;PMS7003;71612;44.776;20.472;2023-09-19T14:19:28;17.00;17.00;10.80
82040;PMS7003;71612;44.776;20.472;2023-09-19T14:21:53;17.75;16.75;11.00
82040;PMS7003;71612;44.776;20.472;2023-09-19T14:24:22;19.80;15.60;11.40
82040;PMS7003;71612;44.776;20.472;2023-09-19T14:26:47;12.75;12.00;7.00
82040;PMS7003;71612;44.776;20.472;2023-09-19T14:29:14;17.80;16.00;9.80
82040;PMS7003;71612;44.776;20.472;2023-09-19T14:31:40;16.40;15.60;10.00
82040;PMS7003;71612;44.776;20.472;2023-09-19T14:34:06;18.00;16.00;11.75
82040;PMS7003;71612;44.776;20.472;2023-09-19T14:36:35;16.40;16.40;11.60
82040;PMS7003;71612;44.776;20.472;2023-09-19T14:39:00;18.00;16.50;10.00
82040;PMS7003;71612;44.776;20.472;2023-09-19T14:41:26;19.00;16.50;10.25
82040;PMS7003;71612;44.776;20.472;2023-09-19T14:43:52;21.00;18.75;12.00
82040;PMS7003;71612;44.776;20.472;2023-09-19T14:46:17;14.50;14.50;10.50
82040;PMS7003;71612;44.776;20.472;2023-09-19T14:48:43;15.00;15.00;10.20
82040;PMS7003;71612;44.776;20.472;2023-09-19T14:51:09;15.75;14.00;10.25
82040;PMS7003;71612;44.776;20.472;2023-09-19T14:53:35;16.25;15.00;7.00
82040;PMS7003;71612;44.776;20.472;2023-09-19T14:56:02;18.40;16.60;10.00
82040;PMS7003;71612;44.776;20.472;2023-09-19T14:58:29;14.60;12.00;7.00
82040;PMS7003;71612;44.776;20.472;2023-09-19T15:01:03;14.00;13.00;10.00
82040;PMS7003;71612;44.776;20.472;2023-09-19T15:03:38;14.00;14.00;10.40